Time;durP1;ratioP1;P1;durP2;ratioP2;P2;SDS_P1;SDS_P2;PMS_P1;PMS_P2;Temp;Humidity;BMP_temperature;BMP_pressure;BME280_temperature;BME280_humidity;BME280_pressure;Samples;Min_cycle;Max_cycle;Signal;HPM_P1;HPM_P2
2021/01/31 00:00:31;;;;;;;1.42;1.40;;;-2.10;99.90;;;;;;5036209;28;20040;-66
2021/01/31 00:02:58;;;;;;;7.45;1.80;;;-2.10;99.90;;;;;;5032587;28;20324;-69
2021/01/31 00:05:25;;;;;;;2.63;2.38;;;-2.10;99.90;;;;;;5037594;28;20141;-68
2021/01/31 00:07:51;;;;;;;5.05;2.22;;;-2.10;99.90;;;;;;5039253;28;20021;-67
2021/01/31 00:10:22;;;;;;;14.25;1.75;;;-2.00;99.90;;;;;;5034202;28;20045;-66
2021/01/31 00:12:48;;;;;;;2.05;1.95;;;-2.10;99.90;;;;;;5044069;28;20045;-68
2021/01/31 00:15:17;;;;;;;1.43;1.33;;;-2.10;99.90;;;;;;5050743;28;20048;-67
2021/01/31 00:17:43;;;;;;;3.58;2.40;;;-2.10;99.90;;;;;;5046359;28;20033;-67
2021/01/31 00:20:11;;;;;;;3.97;2.28;;;-2.10;99.90;;;;;;5047531;28;20043;-67
2021/01/31 00:22:36;;;;;;;12.85;3.55;;;-2.10;99.90;;;;;;5032950;28;20040;-67
2021/01/31 00:25:04;;;;;;;4.53;3.30;;;-2.10;99.90;;;;;;5033506;28;20025;-67
2021/01/31 00:27:29;;;;;;;4.38;3.30;;;-2.10;99.90;;;;;;5039865;28;20033;-71
2021/01/31 00:29:55;;;;;;;2.60;2.40;;;-2.10;99.90;;;;;;5036650;28;20025;-68
2021/01/31 00:32:26;;;;;;;9.13;3.53;;;-2.20;99.90;;;;;;5033717;28;20369;-67
2021/01/31 00:34:53;;;;;;;3.45;3.00;;;-2.20;99.90;;;;;;5021853;28;20313;-67
2021/01/31 00:37:20;;;;;;;5.53;3.17;;;-2.20;99.90;;;;;;5030596;28;20395;-67
2021/01/31 00:39:47;;;;;;;3.75;3.50;;;-2.10;99.90;;;;;;5038088;28;20101;-67
2021/01/31 00:42:16;;;;;;;4.65;4.30;;;-2.10;99.90;;;;;;5038698;28;20036;-67
2021/01/31 00:44:47;;;;;;;1.67;1.58;;;-2.20;99.90;;;;;;5029208;28;20302;-68
2021/01/31 00:47:14;;;;;;;1.67;1.58;;;-2.20;99.90;;;;;;5037001;28;20036;-67
2021/01/31 00:49:39;;;;;;;5.65;1.20;;;-2.30;99.90;;;;;;5040055;28;20077;-66
2021/01/31 00:52:05;;;;;;;2.90;2.70;;;-2.40;99.90;;;;;;5029946;28;20064;-72
2021/01/31 00:54:31;;;;;;;3.10;2.67;;;-2.30;99.90;;;;;;5038907;28;20021;-67
2021/01/31 00:56:57;;;;;;;1.60;1.50;;;-2.30;99.90;;;;;;5035479;28;20032;-67
2021/01/31 00:59:22;;;;;;;1.87;1.77;;;-2.30;99.90;;;;;;5042261;28;20036;-67
2021/01/31 01:01:48;;;;;;;4.97;3.17;;;-2.30;99.90;;;;;;5034821;28;20083;-68
2021/01/31 01:04:14;;;;;;;1.93;1.87;;;-2.30;99.90;;;;;;5032486;28;20055;-68
2021/01/31 01:06:39;;;;;;;0.87;0.87;;;-2.30;99.90;;;;;;5047861;28;20071;-69
2021/01/31 01:09:05;;;;;;;6.57;3.07;;;-2.40;99.90;;;;;;5034252;28;20309;-67
2021/01/31 01:11:31;;;;;;;3.63;2.83;;;-2.40;99.90;;;;;;5036511;28;20053;-69
2021/01/31 01:13:57;;;;;;;1.57;1.10;;;-2.40;99.90;;;;;;5041972;28;20284;-67
2021/01/31 01:16:23;;;;;;;3.73;2.27;;;-2.50;99.90;;;;;;5046565;28;20032;-67
2021/01/31 01:18:48;;;;;;;0.93;0.90;;;-2.60;99.90;;;;;;5034758;28;20036;-72
2021/01/31 01:21:15;;;;;;;1.73;1.07;;;-2.60;99.90;;;;;;5033649;28;20026;-66
2021/01/31 01:23:42;;;;;;;1.42;1.42;;;-2.70;99.90;;;;;;5036658;28;20021;-67
2021/01/31 01:26:11;;;;;;;3.90;3.50;;;-2.80;99.90;;;;;;5034932;28;20083;-68
2021/01/31 01:28:36;;;;;;;2.47;2.30;;;-2.80;99.90;;;;;;5025365;28;20037;-66
2021/01/31 01:31:02;;;;;;;0.97;0.97;;;-2.80;99.90;;;;;;5039156;28;20416;-68
2021/01/31 01:33:28;;;;;;;3.67;2.03;;;-2.80;99.90;;;;;;5029753;28;20017;-67
2021/01/31 01:35:54;;;;;;;1.13;1.13;;;-2.90;99.90;;;;;;5040832;28;20033;-66
2021/01/31 01:38:19;;;;;;;6.33;2.57;;;-2.90;99.90;;;;;;5033744;28;20037;-67
2021/01/31 01:40:45;;;;;;;2.37;2.20;;;-2.90;99.90;;;;;;5035952;28;20017;-68
2021/01/31 01:43:19;;;;;;;1.90;1.80;;;-3.00;99.90;;;;;;5033060;28;20029;-67
2021/01/31 01:46:02;;;;;;;1.65;1.55;;;-3.00;99.90;;;;;;5038034;28;20021;-67
2021/01/31 01:48:28;;;;;;;2.70;2.40;;;-3.00;99.90;;;;;;5034301;28;20025;-67
2021/01/31 01:50:54;;;;;;;1.60;1.53;;;-3.10;99.90;;;;;;5034648;28;20115;-67
2021/01/31 01:53:23;;;;;;;2.60;2.40;;;-3.10;99.90;;;;;;5035754;28;20029;-69
2021/01/31 01:56:00;;;;;;;2.63;2.47;;;-3.10;99.90;;;;;;5033387;28;20124;-71
2021/01/31 01:58:28;;;;;;;1.95;1.85;;;-3.20;99.90;;;;;;5037488;28;20030;-67
2021/01/31 02:00:56;;;;;;;1.20;1.15;;;-3.20;99.90;;;;;;5037755;28;20028;-70
2021/01/31 02:03:29;;;;;;;3.95;3.60;;;-3.10;99.90;;;;;;5033726;28;20352;-67
2021/01/31 02:06:15;;;;;;;4.80;3.88;;;-3.20;99.90;;;;;;5049540;28;20075;-70
2021/01/31 02:08:41;;;;;;;8.10;1.73;;;-3.20;99.90;;;;;;5031832;28;20028;-72
2021/01/31 02:11:12;;;;;;;2.63;2.47;;;-3.20;99.90;;;;;;5038588;28;20263;-66
2021/01/31 02:13:41;;;;;;;18.30;2.85;;;-3.10;99.90;;;;;;5042275;28;20029;-67
2021/01/31 02:16:31;;;;;;;2.63;2.42;;;-3.00;99.90;;;;;;5039371;28;20372;-67
2021/01/31 02:19:20;;;;;;;3.22;2.85;;;-2.90;99.90;;;;;;5032899;28;20424;-72
2021/01/31 02:21:53;;;;;;;2.92;2.42;;;-2.90;99.90;;;;;;5027547;28;20087;-71
2021/01/31 02:24:49;;;;;;;0.85;0.85;;;-2.90;99.90;;;;;;5024195;28;20026;-66
2021/01/31 02:27:53;;;;;;;9.37;2.57;;;-2.80;99.90;;;;;;5024060;28;20029;-66
2021/01/31 02:31:02;;;;;;;4.07;2.63;;;-2.80;99.90;;;;;;5023617;28;20263;-68
2021/01/31 02:33:48;;;;;;;2.67;2.47;;;-2.90;99.90;;;;;;5029400;28;20460;-67
2021/01/31 02:36:25;;;;;;;7.10;3.20;;;-2.90;99.90;;;;;;5032004;28;20030;-66
2021/01/31 02:39:00;;;;;;;3.00;2.75;;;-2.90;99.90;;;;;;5018844;28;20279;-71
2021/01/31 02:41:41;;;;;;;4.85;2.80;;;-2.90;99.90;;;;;;5033898;28;20044;-67
2021/01/31 02:44:11;;;;;;;4.75;1.67;;;-2.90;99.90;;;;;;5032713;28;20060;-66
2021/01/31 02:46:51;;;;;;;7.25;4.25;;;-2.90;99.90;;;;;;5041474;28;20067;-66
2021/01/31 02:49:19;;;;;;;3.95;2.35;;;-2.80;99.90;;;;;;5026790;28;20033;-66
2021/01/31 02:52:14;;;;;;;0.95;0.95;;;-2.80;99.90;;;;;;5035362;28;20026;-67
2021/01/31 02:54:53;;;;;;;0.95;0.95;;;-2.80;99.90;;;;;;5011886;28;20049;-70
2021/01/31 02:57:27;;;;;;;3.83;2.97;;;-2.90;99.90;;;;;;5032825;28;20091;-67
2021/01/31 03:00:04;;;;;;;2.08;1.98;;;-3.00;99.90;;;;;;5041783;28;20021;-66
2021/01/31 03:02:37;;;;;;;7.05;2.00;;;-3.00;99.90;;;;;;5041774;28;20083;-66
2021/01/31 03:05:16;;;;;;;9.95;3.40;;;-2.90;99.90;;;;;;5031576;28;20022;-66
2021/01/31 03:08:18;;;;;;;2.25;1.90;;;-3.00;99.90;;;;;;5033622;28;20040;-70
2021/01/31 03:10:49;;;;;;;1.88;1.70;;;-2.90;99.90;;;;;;5049646;28;20028;-68
2021/01/31 03:13:24;;;;;;;7.38;1.48;;;-3.00;99.90;;;;;;5048992;28;20036;-66
2021/01/31 03:16:13;;;;;;;1.40;1.20;;;-3.00;99.90;;;;;;5038864;28;20090;-70
2021/01/31 03:18:50;;;;;;;7.05;4.35;;;-3.00;99.90;;;;;;5023594;28;20033;-66
2021/01/31 03:21:28;;;;;;;3.75;2.45;;;-3.00;99.90;;;;;;5032901;28;20028;-67
2021/01/31 03:23:54;;;;;;;1.27;1.27;;;-3.00;99.90;;;;;;5027489;28;20033;-66
2021/01/31 03:26:25;;;;;;;0.60;0.60;;;-3.00;99.90;;;;;;5034998;28;20035;-70
2021/01/31 03:28:52;;;;;;;1.48;1.45;;;-3.00;99.90;;;;;;5036652;28;20017;-67
2021/01/31 03:31:22;;;;;;;2.67;1.40;;;-3.10;99.90;;;;;;5036670;28;20024;-66
2021/01/31 03:34:00;;;;;;;4.25;3.55;;;-3.00;99.90;;;;;;5049723;28;20027;-68
2021/01/31 03:36:27;;;;;;;5.38;1.70;;;-3.00;99.90;;;;;;5050109;28;20107;-67
2021/01/31 03:38:54;;;;;;;8.10;1.83;;;-3.00;99.90;;;;;;5042793;28;20026;-67
2021/01/31 03:41:24;;;;;;;3.45;3.10;;;-3.10;99.90;;;;;;5030347;28;20036;-67
2021/01/31 03:43:50;;;;;;;1.05;1.05;;;-3.10;99.90;;;;;;5035078;28;20029;-67
2021/01/31 03:46:55;;;;;;;3.58;3.28;;;-3.10;99.90;;;;;;5031640;28;20057;-67
2021/01/31 03:49:46;;;;;;;11.05;3.08;;;-3.10;99.90;;;;;;5036218;28;20120;-66
2021/01/31 03:52:12;;;;;;;1.48;1.42;;;-3.10;99.90;;;;;;5036401;28;20032;-70
2021/01/31 03:54:37;;;;;;;1.50;1.40;;;-3.10;99.90;;;;;;5032437;28;20034;-67
2021/01/31 03:57:27;;;;;;;1.93;1.87;;;-3.30;99.90;;;;;;5035230;28;20029;-67
2021/01/31 04:00:10;;;;;;;0.75;0.75;;;-3.30;99.90;;;;;;5035122;28;20509;-66
2021/01/31 04:03:02;;;;;;;6.50;3.90;;;-3.30;99.90;;;;;;5027217;28;20037;-67
2021/01/31 04:05:31;;;;;;;1.35;1.35;;;-3.30;99.90;;;;;;5028825;28;20037;-70
2021/01/31 04:08:01;;;;;;;3.17;2.72;;;-3.20;99.90;;;;;;5043799;28;20021;-67
2021/01/31 04:10:27;;;;;;;3.10;2.42;;;-3.20;99.90;;;;;;5030402;28;20053;-67
2021/01/31 04:12:55;;;;;;;1.33;1.23;;;-3.20;99.90;;;;;;5034011;28;20060;-66
2021/01/31 04:15:30;;;;;;;4.82;3.40;;;-3.20;99.90;;;;;;5027389;28;20030;-67
2021/01/31 04:17:56;;;;;;;3.50;3.22;;;-3.30;99.90;;;;;;5049397;28;20427;-69
2021/01/31 04:20:22;;;;;;;1.70;1.60;;;-3.30;99.90;;;;;;5039520;28;20029;-67
2021/01/31 04:22:47;;;;;;;2.07;1.97;;;-3.30;99.90;;;;;;5045171;28;20025;-66
2021/01/31 04:25:13;;;;;;;2.57;2.37;;;-3.30;99.90;;;;;;5035349;28;20116;-67
2021/01/31 04:27:40;;;;;;;4.00;3.77;;;-3.30;99.90;;;;;;5034817;28;20102;-67
2021/01/31 04:30:07;;;;;;;4.85;4.30;;;-3.40;99.90;;;;;;5031439;28;20122;-70
2021/01/31 04:32:34;;;;;;;1.20;1.20;;;-3.40;99.90;;;;;;5038510;28;20029;-68
2021/01/31 04:35:00;;;;;;;1.98;1.88;;;-3.40;99.90;;;;;;5029008;28;20412;-70
2021/01/31 04:37:26;;;;;;;7.03;2.00;;;-3.40;99.90;;;;;;5033921;28;20072;-69
2021/01/31 04:39:51;;;;;;;2.93;2.73;;;-3.40;99.90;;;;;;5029174;28;20018;-67
2021/01/31 04:42:20;;;;;;;28.63;4.67;;;-3.50;99.90;;;;;;5015674;28;20418;-66
2021/01/31 04:44:48;;;;;;;6.10;2.45;;;-3.50;99.90;;;;;;5037124;28;20103;-67
2021/01/31 04:47:27;;;;;;;3.08;2.83;;;-3.50;99.90;;;;;;5036422;28;20029;-68
2021/01/31 04:50:12;;;;;;;6.00;2.95;;;-3.50;99.90;;;;;;5035225;28;20042;-67
2021/01/31 04:53:05;;;;;;;1.38;1.38;;;-3.60;99.90;;;;;;5031188;28;20112;-67
2021/01/31 04:56:00;;;;;;;0.88;0.88;;;-3.50;99.90;;;;;;5040986;28;20030;-67
2021/01/31 04:58:36;;;;;;;6.43;1.42;;;-3.60;99.90;;;;;;5032079;28;20133;-67
2021/01/31 05:01:06;;;;;;;1.92;1.83;;;-3.60;99.90;;;;;;5027579;28;20037;-67
2021/01/31 05:03:37;;;;;;;2.40;2.30;;;-3.60;99.90;;;;;;5034192;28;20099;-67
2021/01/31 05:06:11;;;;;;;6.70;2.55;;;-3.60;99.90;;;;;;5033004;28;20094;-67
2021/01/31 05:08:37;;;;;;;1.00;1.00;;;-3.60;99.90;;;;;;5042890;28;20029;-67
2021/01/31 05:11:23;;;;;;;5.80;3.00;;;-3.60;99.90;;;;;;5030143;28;20404;-66
2021/01/31 05:14:07;;;;;;;3.42;3.13;;;-3.50;99.90;;;;;;5034235;28;20364;-67
2021/01/31 05:16:33;;;;;;;12.65;3.35;;;-3.60;99.90;;;;;;5022071;28;20026;-67
2021/01/31 05:19:03;;;;;;;1.63;1.58;;;-3.60;99.90;;;;;;5048716;28;20546;-67
2021/01/31 05:21:32;;;;;;;10.05;3.33;;;-3.60;99.90;;;;;;5033261;28;20025;-67
2021/01/31 05:24:07;;;;;;;5.30;2.95;;;-3.80;99.90;;;;;;5037569;28;20052;-66
2021/01/31 05:26:40;;;;;;;6.32;1.73;;;-3.80;99.90;;;;;;5023967;28;20026;-69
2021/01/31 05:29:14;;;;;;;2.20;2.10;;;-3.80;99.90;;;;;;5034887;28;20026;-67
2021/01/31 05:31:48;;;;;;;1.33;1.33;;;-3.80;99.90;;;;;;5033894;28;20487;-69
2021/01/31 05:34:14;;;;;;;2.55;2.38;;;-3.80;99.90;;;;;;5030900;28;20029;-67
2021/01/31 05:36:58;;;;;;;1.07;1.07;;;-3.80;99.90;;;;;;5027133;28;20432;-67
2021/01/31 05:39:56;;;;;;;9.70;5.47;;;-3.80;99.90;;;;;;5034704;28;21793;-67
2021/01/31 05:42:28;;;;;;;1.58;1.48;;;-3.80;99.90;;;;;;5006218;28;20429;-67
2021/01/31 05:45:06;;;;;;;1.00;1.00;;;-3.80;99.90;;;;;;5033902;28;20032;-66
2021/01/31 05:47:37;;;;;;;4.68;2.90;;;-3.80;99.90;;;;;;5040153;28;20022;-70
2021/01/31 05:50:15;;;;;;;6.13;4.25;;;-3.80;99.90;;;;;;5034125;28;20093;-67
2021/01/31 05:52:40;;;;;;;5.50;4.57;;;-3.70;99.90;;;;;;5039601;28;20316;-67
2021/01/31 05:55:28;;;;;;;8.00;3.17;;;-3.70;99.90;;;;;;5024087;28;20025;-67
2021/01/31 05:58:13;;;;;;;4.40;3.85;;;-3.70;99.90;;;;;;5035677;28;20029;-68
2021/01/31 06:00:38;;;;;;;1.75;1.60;;;-3.60;99.90;;;;;;5041868;28;20033;-67
2021/01/31 06:03:06;;;;;;;26.50;3.27;;;-3.60;99.90;;;;;;5029245;28;20116;-67
2021/01/31 06:05:33;;;;;;;3.17;1.08;;;-3.50;99.90;;;;;;5042571;28;20457;-67
2021/01/31 06:08:03;;;;;;;0.70;0.70;;;-3.40;99.90;;;;;;5048103;28;20044;-66
2021/01/31 06:10:30;;;;;;;1.35;1.20;;;-3.30;99.90;;;;;;5032760;28;20033;-66
2021/01/31 06:13:09;;;;;;;3.08;2.88;;;-3.20;99.90;;;;;;5033528;28;20064;-67
2021/01/31 06:15:56;;;;;;;2.55;2.40;;;-3.30;99.90;;;;;;5048123;28;20116;-67
2021/01/31 06:18:47;;;;;;;3.60;3.30;;;-3.20;99.90;;;;;;5038130;28;20332;-67
2021/01/31 06:21:16;;;;;;;3.47;2.45;;;-3.10;99.90;;;;;;5018955;28;20041;-67
2021/01/31 06:23:52;;;;;;;4.30;2.40;;;-3.10;99.90;;;;;;5021505;28;20036;-68
2021/01/31 06:26:24;;;;;;;3.60;3.40;;;-3.10;99.90;;;;;;5028173;28;20025;-66
2021/01/31 06:28:54;;;;;;;7.22;2.85;;;-3.00;99.90;;;;;;5033860;28;20052;-67
2021/01/31 06:31:38;;;;;;;3.75;2.28;;;-3.00;99.90;;;;;;5028359;28;20041;-68
2021/01/31 06:34:04;;;;;;;7.22;2.97;;;-3.00;99.90;;;;;;5034706;28;20013;-66
2021/01/31 06:36:49;;;;;;;3.27;2.23;;;-3.00;99.90;;;;;;5023197;28;20483;-70
2021/01/31 06:39:36;;;;;;;3.25;2.70;;;-3.10;99.90;;;;;;5035735;28;20025;-67
2021/01/31 06:42:25;;;;;;;1.65;1.55;;;-3.10;99.90;;;;;;5027260;28;20036;-68
2021/01/31 06:45:06;;;;;;;5.07;2.10;;;-3.10;99.90;;;;;;5036761;28;20045;-67
2021/01/31 06:47:44;;;;;;;4.55;2.47;;;-3.00;99.90;;;;;;5031839;28;20029;-66
2021/01/31 06:50:29;;;;;;;4.00;3.67;;;-3.10;99.90;;;;;;5037940;28;20045;-67
2021/01/31 06:53:20;;;;;;;1.05;1.05;;;-3.10;99.90;;;;;;5037596;28;20032;-67
2021/01/31 06:56:04;;;;;;;1.83;1.77;;;-3.20;99.90;;;;;;5038549;28;20081;-67
2021/01/31 06:58:50;;;;;;;7.20;3.45;;;-3.10;99.90;;;;;;5030446;28;20451;-66
2021/01/31 07:01:39;;;;;;;3.83;3.45;;;-3.20;99.90;;;;;;5028632;28;20156;-67
2021/01/31 07:04:48;;;;;;;2.22;1.98;;;-3.20;99.90;;;;;;5047467;28;20037;-67
2021/01/31 07:07:32;;;;;;;3.40;3.10;;;-3.10;99.90;;;;;;5024877;28;20037;-67
2021/01/31 07:10:31;;;;;;;2.17;2.08;;;-3.20;99.90;;;;;;5054368;28;20324;-67
2021/01/31 07:13:06;;;;;;;2.22;2.13;;;-3.30;99.90;;;;;;5051252;28;20466;-67
2021/01/31 07:16:10;;;;;;;2.28;1.55;;;-3.30;99.90;;;;;;5035566;28;20029;-67
2021/01/31 07:18:46;;;;;;;3.83;2.97;;;-3.40;99.90;;;;;;5033258;28;20416;-67
2021/01/31 07:21:27;;;;;;;3.67;2.22;;;-3.50;99.90;;;;;;5027314;28;20105;-66
2021/01/31 07:23:59;;;;;;;8.07;4.25;;;-3.50;99.90;;;;;;5040177;28;20040;-68
2021/01/31 07:27:00;;;;;;;3.08;1.42;;;-3.50;99.90;;;;;;5028455;28;20483;-67
2021/01/31 07:29:36;;;;;;;2.35;2.20;;;-3.50;99.90;;;;;;4974070;28;20058;-67
2021/01/31 07:32:07;;;;;;;1.90;1.80;;;-3.50;99.90;;;;;;4963045;28;20043;-67
2021/01/31 07:34:39;;;;;;;3.00;2.30;;;-3.50;99.90;;;;;;4974477;28;20042;-67
2021/01/31 07:37:12;;;;;;;3.90;3.35;;;-3.50;99.90;;;;;;4958232;28;20037;-67
2021/01/31 07:40:06;;;;;;;4.55;2.47;;;-3.40;99.90;;;;;;4963739;28;20066;-67
2021/01/31 07:42:39;;;;;;;4.90;1.38;;;-3.50;99.90;;;;;;4974676;28;20474;-67
2021/01/31 07:45:11;;;;;;;1.45;1.33;;;-3.40;99.90;;;;;;4953721;28;20074;-66
2021/01/31 07:47:37;;;;;;;8.13;3.25;;;-3.30;99.90;;;;;;4973774;28;20441;-66
2021/01/31 07:50:03;;;;;;;24.73;4.33;;;-3.20;99.90;;;;;;4977515;28;20051;-67
2021/01/31 07:52:43;;;;;;;5.43;2.43;;;-3.20;99.90;;;;;;4967740;28;20067;-71
2021/01/31 07:55:29;;;;;;;1.83;1.73;;;-3.20;99.90;;;;;;4975447;28;20449;-66
2021/01/31 07:58:31;;;;;;;1.90;1.80;;;-3.20;99.90;;;;;;4976481;28;20489;-67
2021/01/31 08:00:58;;;;;;;5.10;1.40;;;-3.20;99.90;;;;;;4956346;28;20109;-68
2021/01/31 08:03:37;;;;;;;4.90;1.85;;;-3.10;99.90;;;;;;4973310;28;20034;-67
2021/01/31 08:06:18;;;;;;;2.03;1.92;;;-3.10;99.90;;;;;;5028041;28;20052;-67
2021/01/31 08:08:54;;;;;;;1.83;1.73;;;-3.00;99.90;;;;;;5019112;28;20089;-67
2021/01/31 08:11:20;;;;;;;2.50;2.30;;;-2.80;99.90;;;;;;5029100;28;20112;-70
2021/01/31 08:13:50;;;;;;;3.03;2.90;;;-2.70;99.90;;;;;;5043032;28;20108;-67
2021/01/31 08:16:53;;;;;;;9.10;3.42;;;-2.60;99.90;;;;;;5046763;28;20029;-69
2021/01/31 08:19:19;;;;;;;6.13;3.05;;;-2.50;99.90;;;;;;5048565;28;20546;-68
2021/01/31 08:21:55;;;;;;;3.07;2.87;;;-2.40;99.90;;;;;;5035709;28;20088;-69
2021/01/31 08:24:58;;;;;;;5.68;4.50;;;-2.30;99.90;;;;;;5049802;28;20021;-68
2021/01/31 08:28:10;;;;;;;7.38;2.95;;;-2.30;99.90;;;;;;5052222;28;20025;-68
2021/01/31 08:30:41;;;;;;;1.02;1.02;;;-2.40;99.90;;;;;;5043657;28;20044;-68
2021/01/31 08:33:19;;;;;;;13.13;6.30;;;-2.40;99.90;;;;;;5051897;28;20496;-67
2021/01/31 08:35:45;;;;;;;0.85;0.85;;;-2.40;99.90;;;;;;5040993;28;20446;-68
2021/01/31 08:38:18;;;;;;;3.83;3.63;;;-2.40;99.90;;;;;;5047417;28;20029;-68
2021/01/31 08:41:03;;;;;;;2.78;1.17;;;-2.40;99.90;;;;;;5048139;28;20120;-68
2021/01/31 08:43:50;;;;;;;8.05;3.40;;;-2.40;99.90;;;;;;5042856;28;20063;-68
2021/01/31 08:46:17;;;;;;;2.30;2.10;;;-2.40;99.90;;;;;;5031214;28;20017;-68
2021/01/31 08:48:52;;;;;;;2.72;2.53;;;-2.40;99.90;;;;;;5042102;28;20056;-67
2021/01/31 08:51:19;;;;;;;2.30;2.10;;;-2.50;99.90;;;;;;5047137;28;20058;-70
2021/01/31 08:54:03;;;;;;;5.03;1.83;;;-2.40;99.90;;;;;;5048345;28;20120;-67
2021/01/31 08:56:45;;;;;;;2.92;2.72;;;-2.40;99.90;;;;;;5050743;28;20060;-66
2021/01/31 08:59:16;;;;;;;2.20;2.10;;;-2.40;99.90;;;;;;5048111;28;20024;-68
2021/01/31 09:01:48;;;;;;;7.63;3.38;;;-2.30;99.90;;;;;;5044174;28;20049;-67
2021/01/31 09:04:17;;;;;;;3.38;3.13;;;-2.30;99.90;;;;;;5040920;28;20168;-68
2021/01/31 09:06:46;;;;;;;3.08;2.72;;;-2.30;99.90;;;;;;5040530;28;20052;-68
2021/01/31 09:09:24;;;;;;;2.35;2.15;;;-2.20;99.90;;;;;;5031868;28;20116;-67
2021/01/31 09:12:04;;;;;;;3.10;1.98;;;-2.20;99.90;;;;;;5042690;28;20037;-68
2021/01/31 09:14:34;;;;;;;2.53;2.33;;;-2.20;99.90;;;;;;5044330;28;20028;-68
2021/01/31 09:17:06;;;;;;;3.13;2.70;;;-2.10;99.90;;;;;;5052271;28;20086;-67
2021/01/31 09:19:32;;;;;;;3.38;3.17;;;-2.00;99.90;;;;;;5043446;28;20411;-67
2021/01/31 09:22:06;;;;;;;8.48;3.28;;;-2.00;99.90;;;;;;5050285;28;20036;-70
2021/01/31 09:24:38;;;;;;;9.00;3.78;;;-2.00;99.90;;;;;;5045620;28;20016;-69
2021/01/31 09:27:06;;;;;;;3.75;3.47;;;-2.00;99.90;;;;;;5053338;28;20458;-69
2021/01/31 09:29:34;;;;;;;3.38;3.08;;;-1.90;99.90;;;;;;5044201;28;20018;-69
2021/01/31 09:32:11;;;;;;;4.57;1.95;;;-1.90;99.90;;;;;;5048126;28;20052;-70
2021/01/31 09:34:40;;;;;;;9.38;3.10;;;-1.80;99.90;;;;;;5045758;28;20371;-70
2021/01/31 09:37:27;;;;;;;1.17;1.15;;;-1.70;99.90;;;;;;5051665;28;20021;-67
2021/01/31 09:39:59;;;;;;;2.13;2.03;;;-1.60;99.90;;;;;;5043382;28;20017;-68
2021/01/31 09:42:33;;;;;;;3.40;3.05;;;-1.50;99.90;;;;;;5044422;28;20334;-68
2021/01/31 09:45:20;;;;;;;5.95;2.08;;;-1.40;99.90;;;;;;5040777;28;20104;-68
2021/01/31 09:47:47;;;;;;;2.15;2.05;;;-1.30;99.90;;;;;;5045784;28;20036;-68
2021/01/31 09:50:14;;;;;;;5.25;2.47;;;-1.30;99.90;;;;;;5041703;28;20045;-68
2021/01/31 09:52:43;;;;;;;;;;;-1.30;99.90;;;;;;5045325;28;20025;-68
2021/01/31 09:55:39;;;;;;;2.58;2.38;;;-1.30;99.90;;;;;;5042556;28;19913;-68
2021/01/31 09:58:24;;;;;;;2.43;2.23;;;-1.20;99.90;;;;;;5050233;28;20331;-67
2021/01/31 10:00:52;;;;;;;2.00;1.75;;;-1.10;99.90;;;;;;5043758;28;20274;-67
2021/01/31 10:03:33;;;;;;;3.60;2.90;;;-1.10;99.90;;;;;;5050922;28;20083;-67
2021/01/31 10:06:17;;;;;;;1.08;1.08;;;-1.10;99.90;;;;;;5043557;28;20059;-68
2021/01/31 10:08:56;;;;;;;2.55;1.83;;;-1.00;99.90;;;;;;5046105;28;20044;-67
2021/01/31 10:11:33;;;;;;;2.03;1.88;;;-1.00;99.90;;;;;;5049156;28;20024;-69
2021/01/31 10:14:00;;;;;;;1.92;1.83;;;-1.00;99.90;;;;;;5045899;28;20195;-69
2021/01/31 10:16:31;;;;;;;3.35;2.58;;;-1.00;99.90;;;;;;5045372;28;20123;-69
2021/01/31 10:19:19;;;;;;;4.70;2.80;;;-1.00;99.90;;;;;;5045334;28;20036;-67
2021/01/31 10:21:56;;;;;;;5.13;2.60;;;-0.90;99.90;;;;;;5056035;28;20029;-69
2021/01/31 10:24:30;;;;;;;13.10;2.80;;;-0.90;99.90;;;;;;5041674;28;20478;-67
2021/01/31 10:27:25;;;;;;;1.33;1.33;;;-0.90;99.90;;;;;;5046365;28;20025;-68
2021/01/31 10:29:52;;;;;;;2.35;1.30;;;-1.00;99.90;;;;;;5051101;28;20040;-67
2021/01/31 10:32:19;;;;;;;1.63;1.52;;;-0.90;99.90;;;;;;5030411;28;20052;-67
2021/01/31 10:34:45;;;;;;;1.55;1.45;;;-0.80;99.90;;;;;;5047446;28;20327;-67
2021/01/31 10:37:12;;;;;;;4.33;1.10;;;-0.90;99.90;;;;;;5049493;28;20027;-70
2021/01/31 10:39:38;;;;;;;1.00;0.98;;;-0.90;99.90;;;;;;5049520;28;20039;-69
2021/01/31 10:42:04;;;;;;;2.17;1.40;;;-0.90;99.90;;;;;;5046936;28;20028;-67
2021/01/31 10:44:29;;;;;;;1.40;1.33;;;-0.80;99.90;;;;;;5048646;28;20146;-67
2021/01/31 10:46:55;;;;;;;2.87;2.67;;;-0.80;99.90;;;;;;5053812;28;20025;-67
2021/01/31 10:49:22;;;;;;;1.58;1.48;;;-0.90;99.90;;;;;;5047883;28;20084;-68
2021/01/31 10:51:48;;;;;;;0.95;0.95;;;-0.90;99.90;;;;;;5045741;28;20021;-68
2021/01/31 10:54:16;;;;;;;1.33;1.23;;;-1.00;99.90;;;;;;5039206;28;20064;-67
2021/01/31 10:56:42;;;;;;;2.38;2.08;;;-0.90;99.90;;;;;;5050436;28;20026;-69
2021/01/31 10:59:07;;;;;;;1.10;1.10;;;-0.90;99.90;;;;;;5041581;28;20079;-69
2021/01/31 11:01:33;;;;;;;2.93;2.70;;;-0.90;99.90;;;;;;5044977;28;20028;-68
2021/01/31 11:03:59;;;;;;;2.47;2.33;;;-0.80;99.90;;;;;;5035213;28;20030;-68
2021/01/31 11:06:27;;;;;;;11.57;2.27;;;-0.70;99.90;;;;;;5042347;28;20052;-69
2021/01/31 11:08:52;;;;;;;2.75;2.53;;;-0.50;99.90;;;;;;5042384;28;20014;-68
2021/01/31 11:11:19;;;;;;;2.33;1.30;;;-0.40;99.90;;;;;;5050648;28;20017;-69
2021/01/31 11:13:46;;;;;;;11.93;2.78;;;-0.30;99.90;;;;;;5040963;28;20029;-69
2021/01/31 11:16:11;;;;;;;1.88;1.77;;;-0.20;99.90;;;;;;5037292;28;20030;-68
2021/01/31 11:18:37;;;;;;;1.37;1.33;;;-0.20;99.90;;;;;;5038396;28;20028;-68
2021/01/31 11:21:03;;;;;;;1.37;1.27;;;-0.10;99.90;;;;;;5034463;28;20029;-69
2021/01/31 11:23:29;;;;;;;5.53;2.80;;;0.00;99.90;;;;;;5053842;28;20036;-68
2021/01/31 11:25:54;;;;;;;1.70;1.60;;;0.00;99.90;;;;;;5038705;28;20048;-69
2021/01/31 11:28:20;;;;;;;0.60;0.60;;;0.00;99.90;;;;;;5025807;28;20092;-68
2021/01/31 11:30:47;;;;;;;12.67;3.00;;;-0.20;99.90;;;;;;5027011;28;20051;-69
2021/01/31 11:33:13;;;;;;;22.20;2.83;;;-0.10;99.90;;;;;;5037562;28;20328;-67
2021/01/31 11:35:39;;;;;;;2.42;2.22;;;0.00;99.90;;;;;;5038226;28;20137;-68
2021/01/31 11:38:06;;;;;;;7.75;5.80;;;0.00;99.90;;;;;;5036423;28;20108;-67
2021/01/31 11:40:32;;;;;;;2.75;2.47;;;0.00;99.90;;;;;;5042073;28;20090;-68
2021/01/31 11:42:57;;;;;;;1.90;1.80;;;0.00;99.90;;;;;;5047286;28;20064;-68
2021/01/31 11:45:25;;;;;;;3.40;2.60;;;0.20;99.90;;;;;;5053152;28;20443;-69
2021/01/31 11:47:52;;;;;;;2.00;1.90;;;0.20;99.90;;;;;;5049805;28;20075;-68
2021/01/31 11:50:18;;;;;;;;;;;0.10;99.90;;;;;;5027376;28;20144;-68
2021/01/31 11:52:44;;;;;;;1.40;1.40;;;0.20;99.90;;;;;;5052677;28;20008;-68
2021/01/31 11:55:11;;;;;;;4.78;1.98;;;0.20;99.90;;;;;;5053142;28;20052;-67
2021/01/31 11:57:37;;;;;;;2.15;1.90;;;0.40;99.90;;;;;;5050466;28;20025;-68
2021/01/31 12:00:08;;;;;;;2.22;2.05;;;0.50;99.90;;;;;;5055857;28;20090;-68
2021/01/31 12:02:34;;;;;;;1.40;1.33;;;0.70;99.90;;;;;;5050431;28;20544;-68
2021/01/31 12:05:01;;;;;;;1.07;1.07;;;0.90;99.90;;;;;;5050443;28;20029;-69
2021/01/31 12:07:26;;;;;;;4.13;3.70;;;1.00;99.90;;;;;;5046900;28;20440;-68
2021/01/31 12:09:52;;;;;;;1.67;1.57;;;1.00;99.90;;;;;;5044564;28;20121;-67
2021/01/31 12:12:18;;;;;;;36.40;2.93;;;1.10;99.90;;;;;;5047284;28;20032;-68
2021/01/31 12:14:44;;;;;;;12.90;3.20;;;1.00;99.90;;;;;;5045816;28;20071;-68
2021/01/31 12:17:10;;;;;;;6.03;1.83;;;1.00;99.90;;;;;;5047313;28;20071;-68
2021/01/31 12:19:36;;;;;;;6.93;1.37;;;1.10;99.90;;;;;;5051896;28;20065;-68
2021/01/31 12:22:02;;;;;;;2.83;0.68;;;1.10;99.90;;;;;;5052863;28;20029;-68
2021/01/31 12:24:28;;;;;;;1.27;1.13;;;1.10;99.90;;;;;;5049635;28;20395;-67
2021/01/31 12:26:53;;;;;;;1.57;1.50;;;1.20;99.90;;;;;;5035149;28;20051;-68
2021/01/31 12:29:19;;;;;;;1.13;1.10;;;1.20;99.90;;;;;;5038654;28;20037;-68
2021/01/31 12:31:45;;;;;;;3.90;3.50;;;1.00;99.90;;;;;;5052389;28;20036;-68
2021/01/31 12:34:11;;;;;;;1.20;1.17;;;1.10;99.90;;;;;;5051006;28;20033;-68
2021/01/31 12:36:36;;;;;;;1.27;1.27;;;1.20;99.90;;;;;;5052526;28;20025;-68
2021/01/31 12:39:03;;;;;;;1.00;0.97;;;1.20;99.90;;;;;;5046137;28;20052;-68
2021/01/31 12:41:29;;;;;;;2.95;2.50;;;1.30;99.90;;;;;;5042832;28;20035;-68
2021/01/31 12:43:55;;;;;;;3.47;2.37;;;1.40;99.90;;;;;;5048291;28;20332;-69
2021/01/31 12:46:21;;;;;;;1.83;1.20;;;1.50;99.90;;;;;;5032345;28;20026;-68
2021/01/31 12:48:47;;;;;;;1.27;1.17;;;1.50;99.90;;;;;;5029582;28;20017;-67
2021/01/31 12:51:12;;;;;;;2.87;1.73;;;1.60;99.90;;;;;;5037501;28;20033;-68
2021/01/31 12:53:38;;;;;;;1.07;1.07;;;1.60;99.90;;;;;;4989878;28;20026;-68
2021/01/31 12:56:04;;;;;;;0.50;0.50;;;1.60;99.90;;;;;;5042361;28;20032;-68
2021/01/31 12:58:30;;;;;;;1.03;1.03;;;1.60;99.90;;;;;;5038494;28;20152;-67
2021/01/31 13:00:57;;;;;;;36.70;3.60;;;1.70;99.90;;;;;;5031730;28;20033;-68
2021/01/31 13:03:23;;;;;;;2.78;2.30;;;1.60;99.90;;;;;;5034572;28;20021;-68
2021/01/31 13:05:48;;;;;;;12.87;1.53;;;1.40;99.90;;;;;;5037797;28;20024;-68
2021/01/31 13:08:14;;;;;;;1.20;1.17;;;1.40;99.90;;;;;;5036223;28;20424;-68
2021/01/31 13:10:40;;;;;;;1.73;1.17;;;1.40;99.90;;;;;;5041939;28;20098;-68
2021/01/31 13:13:06;;;;;;;0.93;0.93;;;1.60;99.90;;;;;;5025650;28;20030;-68
2021/01/31 13:15:31;;;;;;;1.40;1.30;;;1.70;99.90;;;;;;5035953;28;20488;-67
2021/01/31 13:17:58;;;;;;;0.53;0.53;;;1.80;99.90;;;;;;5042671;28;20063;-68